Bernard A — TCWN3 — position and weather

sailwx.info

Track history (hours):
 
Tides and Currents Weather Stations Pressure Air Temp Water Temp Dewpoint Dewpoint Depression Visibility Wind Speed Wind Dir Waves Ship Positions

Bernard A

Last reported at 2016-Feb-04 02:33 UTC. Time now 2016-Feb-06 09:20 UTC.
Position N 42°11' E 039°41'.

Length 184 m; draft 8.2 m.

Type: Ship (hazmat cat A). MMSI: 271040008.

Date/timePositionNaut miles runAvg speedWind from/ knotsBaromVisibWave heightAir tempDewpointWater temp
2016-Feb-04 02:33N 42°11' E 039°41'1615.6
2016-Feb-04 01:31N 42°11' E 039°20'1515.9
2016-Feb-04 00:32N 42°11' E 038°59'1615.9
2016-Feb-03 23:33N 42°11' E 038°38'1616.1
2016-Feb-03 22:33N 42°11' E 038°16'1616.0
2016-Feb-03 21:34N 42°11' E 037°54'1615.7
2016-Feb-03 20:34N 42°11' E 037°33'39413.9
2016-Feb-02 16:11N 40°55' E 028°56'12 6.5
2016-Feb-02 14:22N 40°45' E 028°48'1 0.7
2016-Feb-02 13:05N 40°45' E 028°47'3 5.7
2016-Feb-02 12:31N 40°43' E 028°43'  
2016-Jan-30 17:13N 40°55' E 028°41'1011.9
2016-Jan-30 16:23N 40°55' E 028°54'176 8.0
2016-Jan-29 18:26N 43°52' E 028°49'1112.4
2016-Jan-29 17:33N 44°02' E 028°45'6 5.7
2016-Jan-29 16:33N 44°06' E 028°40'0 0.0
2016-Jan-29 15:31N 44°06' E 028°40'0 0.0
2016-Jan-29 14:31N 44°06' E 028°40'0 0.0
2016-Jan-29 13:22N 44°06' E 028°40'0 0.0
2016-Jan-29 12:22N 44°06' E 028°40'0 0.0
2016-Jan-29 11:25N 44°06' E 028°40'0 0.0
2016-Jan-29 10:22N 44°06' E 028°40'0 0.0
2016-Jan-29 09:22N 44°06' E 028°40'0 0.0
2016-Jan-29 08:25N 44°06' E 028°40'0 0.0
2016-Jan-29 07:28N 44°06' E 028°40'0 0.0
2016-Jan-29 06:28N 44°06' E 028°40'0 0.0
2016-Jan-29 05:31N 44°06' E 028°40'1 0.9
2016-Jan-29 04:33N 44°06' E 028°41'6 6.5
2016-Jan-29 03:33N 44°02' E 028°47'  
Track history (hours):
 
Tides and Currents Weather Stations Pressure Air Temp Water Temp Dewpoint Dewpoint Depression Visibility Wind Speed Wind Dir Waves Ship Positions

Bernard A

Last reported at 2016-Feb-04 02:33 UTC. Time now 2016-Feb-06 09:20 UTC.
Position N 42°11' E 039°41'.

Length 184 m; draft 8.2 m.

Type: Ship (hazmat cat A). MMSI: 271040008.

Date/timePositionNaut miles runAvg speedWind from/ knotsBaromVisibWave heightAir tempDewpointWater temp
2016-Feb-04 02:33N 42°11' E 039°41'1615.6
2016-Feb-04 01:31N 42°11' E 039°20'1515.9
2016-Feb-04 00:32N 42°11' E 038°59'1615.9
2016-Feb-03 23:33N 42°11' E 038°38'1616.1
2016-Feb-03 22:33N 42°11' E 038°16'1616.0
2016-Feb-03 21:34N 42°11' E 037°54'1615.7
2016-Feb-03 20:34N 42°11' E 037°33'39413.9
2016-Feb-02 16:11N 40°55' E 028°56'12 6.5
2016-Feb-02 14:22N 40°45' E 028°48'1 0.7
2016-Feb-02 13:05N 40°45' E 028°47'3 5.7
2016-Feb-02 12:31N 40°43' E 028°43'  
2016-Jan-30 17:13N 40°55' E 028°41'1011.9
2016-Jan-30 16:23N 40°55' E 028°54'176 8.0
2016-Jan-29 18:26N 43°52' E 028°49'1112.4
2016-Jan-29 17:33N 44°02' E 028°45'6 5.7
2016-Jan-29 16:33N 44°06' E 028°40'0 0.0
2016-Jan-29 15:31N 44°06' E 028°40'0 0.0
2016-Jan-29 14:31N 44°06' E 028°40'0 0.0
2016-Jan-29 13:22N 44°06' E 028°40'0 0.0
2016-Jan-29 12:22N 44°06' E 028°40'0 0.0
2016-Jan-29 11:25N 44°06' E 028°40'0 0.0
2016-Jan-29 10:22N 44°06' E 028°40'0 0.0
2016-Jan-29 09:22N 44°06' E 028°40'0 0.0
2016-Jan-29 08:25N 44°06' E 028°40'0 0.0
2016-Jan-29 07:28N 44°06' E 028°40'0 0.0
2016-Jan-29 06:28N 44°06' E 028°40'0 0.0
2016-Jan-29 05:31N 44°06' E 028°40'1 0.9
2016-Jan-29 04:33N 44°06' E 028°41'6 6.5
2016-Jan-29 03:33N 44°02' E 028°47'  

Dump ship's entire track history